Time;durP1;ratioP1;P1;durP2;ratioP2;P2;SDS_P1;SDS_P2;PMS_P1;PMS_P2;Temp;Humidity;BMP_temperature;BMP_pressure;BME280_temperature;BME280_humidity;BME280_pressure;Samples;Min_cycle;Max_cycle;Signal;HPM_P1;HPM_P2
2024/01/19 00:00:50;;;;;;;;;;;;;;;9.60;68.07;98566.91;4977913;28;19963;-86
2024/01/19 00:03:16;;;;;;;;;;;;;;;9.62;69.39;98577.25;4995335;28;19914;-86
2024/01/19 00:05:41;;;;;;;;;;;;;;;9.61;68.50;98571.16;4995412;28;19996;-86
2024/01/19 00:08:06;;;;;;;;;;;;;;;9.61;69.47;98579.06;4995298;28;19917;-86
2024/01/19 00:10:32;;;;;;;;;;;;;;;9.66;69.47;98581.13;4993973;28;19972;-86
2024/01/19 00:12:58;;;;;;;;;;;;;;;9.67;69.13;98588.84;4977731;28;19910;-85
2024/01/19 00:15:23;;;;;;;;;;;;;;;9.68;68.79;98595.75;4995333;28;19929;-85
2024/01/19 00:17:48;;;;;;;;;;;;;;;9.68;70.21;98594.94;4977529;28;19921;-85
2024/01/19 00:20:13;;;;;;;;;;;;;;;9.71;70.04;98586.66;4994907;28;20342;-84
2024/01/19 00:22:39;;;;;;;;;;;;;;;9.73;69.90;98592.53;4977350;28;19920;-84
2024/01/19 00:25:04;;;;;;;;;;;;;;;9.75;70.32;98601.06;4994823;28;19914;-85
2024/01/19 00:27:30;;;;;;;;;;;;;;;9.73;70.16;98630.25;4994830;28;19914;-86
2024/01/19 00:29:55;;;;;;;;;;;;;;;9.72;70.05;98647.06;4994799;28;19913;-86
2024/01/19 00:32:21;;;;;;;;;;;;;;;9.71;70.20;98652.53;4994641;28;19913;-86
2024/01/19 00:34:46;;;;;;;;;;;;;;;9.69;71.14;98654.56;4994439;28;19924;-86
2024/01/19 00:37:11;;;;;;;;;;;;;;;9.70;69.88;98646.44;4994565;28;19921;-86
2024/01/19 00:39:36;;;;;;;;;;;;;;;9.70;71.06;98656.19;4994586;28;19914;-86
2024/01/19 00:42:02;;;;;;;;;;;;;;;9.71;71.49;98649.91;4994492;28;19929;-86
2024/01/19 00:44:28;;;;;;;;;;;;;;;9.71;71.28;98642.00;4993984;28;20284;-86
2024/01/19 00:46:54;;;;;;;;;;;;;;;9.72;71.62;98633.09;4994135;28;19976;-86
2024/01/19 00:49:19;;;;;;;;;;;;;;;9.74;72.76;98631.88;4994387;28;20481;-86
2024/01/19 00:51:44;;;;;;;;;;;;;;;9.75;71.66;98630.88;4994387;28;19920;-85
2024/01/19 00:54:09;;;;;;;;;;;;;;;9.77;71.91;98634.13;4994612;28;19914;-85
2024/01/19 00:56:35;;;;;;;;;;;;;;;9.77;72.00;98622.75;4976887;28;19913;-85
2024/01/19 00:59:00;;;;;;;;;;;;;;;9.80;71.87;98620.56;4994171;28;20318;-85
2024/01/19 01:01:25;;;;;;;;;;;;;;;9.82;71.98;98629.06;4976709;28;19913;-85
2024/01/19 01:03:50;;;;;;;;;;;;;;;9.85;72.99;98626.06;4976615;28;19917;-85
2024/01/19 01:06:16;;;;;;;;;;;;;;;9.86;72.82;98617.13;4994048;28;19914;-85
2024/01/19 01:08:41;;;;;;;;;;;;;;;9.90;72.29;98616.75;4994093;28;20477;-85
2024/01/19 01:11:07;;;;;;;;;;;;;;;9.93;71.77;98621.63;4993905;28;19914;-85
2024/01/19 01:13:32;;;;;;;;;;;;;;;9.97;72.66;98613.13;4976745;28;19960;-85
2024/01/19 01:15:58;;;;;;;;;;;;;;;10.00;72.49;98609.28;4993840;28;19965;-85
2024/01/19 01:18:23;;;;;;;;;;;;;;;10.00;72.89;98607.44;4993941;28;19924;-85
2024/01/19 01:20:50;;;;;;;;;;;;;;;10.00;72.59;98609.28;4976318;28;20465;-85
2024/01/19 01:23:15;;;;;;;;;;;;;;;10.02;73.26;98597.53;4976326;28;19968;-85
2024/01/19 01:25:41;;;;;;;;;;;;;;;10.05;72.83;98591.84;4993786;28;20395;-85
2024/01/19 01:28:06;;;;;;;;;;;;;;;10.07;73.05;98589.00;4976341;28;19953;-85
2024/01/19 01:30:31;;;;;;;;;;;;;;;10.09;73.31;98579.09;4976357;28;19976;-85
2024/01/19 01:32:56;;;;;;;;;;;;;;;10.08;72.70;98577.47;4976235;28;19914;-85
2024/01/19 01:35:22;;;;;;;;;;;;;;;10.08;73.17;98575.63;4993550;28;19918;-86
2024/01/19 01:37:48;;;;;;;;;;;;;;;10.10;73.12;98567.53;4976078;28;19960;-85
2024/01/19 01:40:13;;;;;;;;;;;;;;;10.13;72.26;98556.56;4993535;28;19925;-85
2024/01/19 01:42:38;;;;;;;;;;;;;;;10.12;73.07;98561.03;4993552;28;20401;-85
2024/01/19 01:45:04;;;;;;;;;;;;;;;10.12;73.08;98560.22;4975978;28;19920;-85
2024/01/19 01:47:30;;;;;;;;;;;;;;;10.11;73.37;98564.69;4993349;28;19914;-85
2024/01/19 01:49:55;;;;;;;;;;;;;;;10.13;73.36;98570.56;4975820;28;20386;-85
2024/01/19 01:52:20;;;;;;;;;;;;;;;10.13;72.78;98565.28;4975812;28;20292;-86
2024/01/19 01:54:46;;;;;;;;;;;;;;;10.16;73.05;98572.00;4993108;28;19969;-86
2024/01/19 01:57:12;;;;;;;;;;;;;;;10.17;73.64;98571.00;4992982;28;20350;-86
2024/01/19 01:59:37;;;;;;;;;;;;;;;10.17;73.05;98563.06;4993089;28;20310;-86
2024/01/19 02:02:03;;;;;;;;;;;;;;;10.16;73.23;98561.44;4993099;28;20004;-86
2024/01/19 02:04:29;;;;;;;;;;;;;;;10.14;73.47;98564.28;4975454;28;19913;-86
2024/01/19 02:06:54;;;;;;;;;;;;;;;10.12;73.78;98561.03;4975528;28;19913;-86
2024/01/19 02:09:19;;;;;;;;;;;;;;;10.10;71.88;98556.97;4975672;28;19914;-86
2024/01/19 02:11:44;;;;;;;;;;;;;;;10.07;72.52;98552.91;4975492;28;20350;-85
2024/01/19 02:14:10;;;;;;;;;;;;;;;10.02;72.64;98547.41;4992856;28;19914;-84
2024/01/19 02:16:36;;;;;;;;;;;;;;;10.03;71.39;98537.69;4991662;28;19971;-83
2024/01/19 02:19:01;;;;;;;;;;;;;;;10.00;71.23;98520.44;4992735;28;19914;-84
2024/01/19 02:21:26;;;;;;;;;;;;;;;9.97;71.54;98520.03;4992445;28;20311;-84
2024/01/19 02:23:55;;;;;;;;;;;;;;;9.96;72.20;98521.03;4992935;28;19961;-85
2024/01/19 02:26:21;;;;;;;;;;;;;;;9.96;72.08;98507.84;4992866;28;19953;-85
2024/01/19 02:28:47;;;;;;;;;;;;;;;9.97;73.13;98507.66;4975372;28;20004;-85
2024/01/19 02:31:12;;;;;;;;;;;;;;;9.96;73.33;98511.28;4975409;28;19984;-86
2024/01/19 02:33:37;;;;;;;;;;;;;;;9.95;73.37;98522.84;4991901;28;19913;-86
2024/01/19 02:36:03;;;;;;;;;;;;;;;9.94;72.99;98523.06;4992964;28;20108;-86
2024/01/19 02:38:28;;;;;;;;;;;;;;;9.91;72.85;98518.19;4993015;28;19918;-86
2024/01/19 02:40:53;;;;;;;;;;;;;;;9.92;72.91;98522.44;4975361;28;19924;-86
2024/01/19 02:43:18;;;;;;;;;;;;;;;9.91;73.19;98526.91;4992787;28;19909;-86
2024/01/19 02:45:44;;;;;;;;;;;;;;;9.92;73.74;98523.25;4992508;28;19921;-86
2024/01/19 02:48:09;;;;;;;;;;;;;;;9.90;74.23;98530.53;4992484;28;19921;-86
2024/01/19 02:50:34;;;;;;;;;;;;;;;9.90;73.38;98533.19;4974984;28;20444;-86
2024/01/19 02:53:00;;;;;;;;;;;;;;;9.91;74.50;98537.44;4975001;28;19917;-85
2024/01/19 02:55:25;;;;;;;;;;;;;;;9.92;73.04;98544.34;4992281;28;19964;-87
2024/01/19 02:57:50;;;;;;;;;;;;;;;9.92;74.01;98559.34;4974799;28;19921;-86
2024/01/19 03:00:15;;;;;;;;;;;;;;;9.91;74.03;98557.72;4974832;28;19914;-86
2024/01/19 03:02:41;;;;;;;;;;;;;;;9.89;74.23;98557.94;4992447;28;19968;-86
2024/01/19 03:05:06;;;;;;;;;;;;;;;9.90;73.56;98549.00;4992429;28;19914;-87
2024/01/19 03:07:31;;;;;;;;;;;;;;;9.90;73.67;98550.81;4992380;28;19965;-86
2024/01/19 03:09:56;;;;;;;;;;;;;;;9.88;73.72;98551.03;4995925;28;19914;-87
2024/01/19 03:12:22;;;;;;;;;;;;;;;9.88;73.74;98540.47;4996413;28;20402;-86
2024/01/19 03:14:47;;;;;;;;;;;;;;;9.86;74.40;98542.50;4978667;28;19925;-86
2024/01/19 03:17:13;;;;;;;;;;;;;;;9.87;73.97;98547.56;4994941;28;19918;-87
2024/01/19 03:19:38;;;;;;;;;;;;;;;9.86;74.00;98547.78;4978346;28;19922;-86
2024/01/19 03:22:04;;;;;;;;;;;;;;;9.83;74.88;98556.06;4995963;28;19913;-86
2024/01/19 03:24:29;;;;;;;;;;;;;;;9.82;73.90;98565.00;4995924;28;19944;-86
2024/01/19 03:26:54;;;;;;;;;;;;;;;9.81;74.23;98561.53;4978409;28;20350;-86
2024/01/19 03:29:20;;;;;;;;;;;;;;;9.79;74.46;98566.19;4978784;28;19913;-87
2024/01/19 03:31:46;;;;;;;;;;;;;;;9.77;73.46;98562.13;4978849;28;19913;-86
2024/01/19 03:34:11;;;;;;;;;;;;;;;9.76;73.99;98563.16;4994751;28;20454;-86
2024/01/19 03:36:37;;;;;;;;;;;;;;;9.75;74.14;98564.97;4978589;28;20008;-86
2024/01/19 03:39:02;;;;;;;;;;;;;;;9.75;74.07;98569.44;4996065;28;19957;-87
2024/01/19 03:41:28;;;;;;;;;;;;;;;9.75;73.55;98579.97;4995999;28;19957;-86
2024/01/19 03:43:53;;;;;;;;;;;;;;;9.74;73.97;98568.63;4978576;28;19993;-86
2024/01/19 03:46:18;;;;;;;;;;;;;;;9.72;74.78;98560.09;4995730;28;19914;-87
2024/01/19 03:48:43;;;;;;;;;;;;;;;9.71;74.43;98563.75;4978277;28;20424;-87
2024/01/19 03:51:09;;;;;;;;;;;;;;;9.71;72.55;98560.28;4995813;28;19920;-86
2024/01/19 03:53:34;;;;;;;;;;;;;;;9.70;74.01;98570.03;4978384;28;20366;-87
2024/01/19 03:55:59;;;;;;;;;;;;;;;9.69;73.90;98573.66;4995907;28;19925;-86
2024/01/19 03:58:25;;;;;;;;;;;;;;;9.71;74.55;98586.66;4978156;28;19921;-86
2024/01/19 04:00:50;;;;;;;;;;;;;;;9.69;74.43;98596.56;4995773;28;20005;-87
2024/01/19 04:03:15;;;;;;;;;;;;;;;9.67;74.74;98599.41;4978226;28;19968;-87
2024/01/19 04:05:41;;;;;;;;;;;;;;;9.66;74.15;98599.56;4978356;28;19992;-86
2024/01/19 04:08:06;;;;;;;;;;;;;;;9.66;74.01;98602.19;4995489;28;19914;-87
2024/01/19 04:10:31;;;;;;;;;;;;;;;9.66;73.98;98600.41;4995440;28;19914;-87
2024/01/19 04:12:56;;;;;;;;;;;;;;;9.65;74.26;98590.03;4978182;28;19980;-86
2024/01/19 04:15:22;;;;;;;;;;;;;;;9.64;74.57;98598.94;4995501;28;19917;-87
2024/01/19 04:17:47;;;;;;;;;;;;;;;9.62;75.34;98595.69;4978371;28;19969;-87
2024/01/19 04:20:12;;;;;;;;;;;;;;;9.60;75.06;98587.97;4978053;28;20391;-87
2024/01/19 04:22:37;;;;;;;;;;;;;;;9.57;74.62;98597.09;4995593;28;19913;-87
2024/01/19 04:25:03;;;;;;;;;;;;;;;9.55;74.97;98596.47;4978197;28;20409;-87
2024/01/19 04:27:28;;;;;;;;;;;;;;;9.52;75.71;98601.31;4995942;28;19918;-86
2024/01/19 04:29:53;;;;;;;;;;;;;;;9.51;74.64;98607.59;4977841;28;20003;-86
2024/01/19 04:32:19;;;;;;;;;;;;;;;9.51;74.54;98613.69;4977474;28;19914;-87
2024/01/19 04:34:45;;;;;;;;;;;;;;;9.51;74.50;98605.78;4994779;28;19925;-87
2024/01/19 04:37:10;;;;;;;;;;;;;;;9.47;74.19;98612.44;4977594;28;19922;-87
2024/01/19 04:39:35;;;;;;;;;;;;;;;9.44;74.77;98610.19;4977436;28;19914;-87
2024/01/19 04:42:00;;;;;;;;;;;;;;;9.41;74.63;98613.22;4977429;28;20446;-87
2024/01/19 04:44:26;;;;;;;;;;;;;;;9.42;74.38;98616.66;4977111;28;19921;-87
2024/01/19 04:46:51;;;;;;;;;;;;;;;9.42;73.87;98617.47;4976941;28;19914;-86
2024/01/19 04:49:16;;;;;;;;;;;;;;;9.43;74.89;98623.56;4994355;28;20383;-86
2024/01/19 04:51:42;;;;;;;;;;;;;;;9.42;75.01;98622.75;4976808;28;19949;-86
2024/01/19 04:54:07;;;;;;;;;;;;;;;9.42;74.75;98616.66;4976779;28;19913;-87
2024/01/19 04:56:33;;;;;;;;;;;;;;;9.41;75.17;98629.03;4994430;28;20004;-87
2024/01/19 04:58:59;;;;;;;;;;;;;;;9.41;75.06;98626.38;4976768;28;19979;-87
2024/01/19 05:01:24;;;;;;;;;;;;;;;9.39;75.55;98625.75;4976903;28;19914;-87
2024/01/19 05:03:49;;;;;;;;;;;;;;;9.40;74.76;98634.47;4976850;28;19921;-87
2024/01/19 05:06:15;;;;;;;;;;;;;;;9.40;74.72;98631.84;4976694;28;19914;-87
2024/01/19 05:08:40;;;;;;;;;;;;;;;9.38;75.01;98632.03;4976760;28;19918;-87
2024/01/19 05:11:05;;;;;;;;;;;;;;;9.38;75.10;98634.69;4976555;28;19933;-86
2024/01/19 05:13:30;;;;;;;;;;;;;;;9.39;74.53;98633.66;4976722;28;20410;-85
2024/01/19 05:15:56;;;;;;;;;;;;;;;9.38;74.88;98631.22;4976734;28;19921;-85
2024/01/19 05:18:21;;;;;;;;;;;;;;;9.38;74.86;98633.84;4994283;28;19917;-86
2024/01/19 05:20:46;;;;;;;;;;;;;;;9.37;74.76;98624.31;4976582;28;19922;-86
2024/01/19 05:23:12;;;;;;;;;;;;;;;9.37;75.39;98635.69;4994051;28;19965;-86
2024/01/19 05:25:37;;;;;;;;;;;;;;;9.36;74.71;98626.16;4976646;28;20398;-86
2024/01/19 05:28:03;;;;;;;;;;;;;;;9.38;75.06;98629.41;4993918;28;19918;-86
2024/01/19 05:30:28;;;;;;;;;;;;;;;9.39;74.92;98625.75;4976295;28;19929;-87
2024/01/19 05:32:53;;;;;;;;;;;;;;;9.40;74.54;98624.75;4994248;28;19924;-87
2024/01/19 05:35:19;;;;;;;;;;;;;;;9.39;75.03;98630.22;4976558;28;19917;-86
2024/01/19 05:37:44;;;;;;;;;;;;;;;9.08;75.35;98585.84;4976360;28;20001;-87
2024/01/19 05:40:09;;;;;;;;;;;;;;;9.36;74.91;98634.06;4976434;28;19985;-87
2024/01/19 05:42:35;;;;;;;;;;;;;;;9.37;75.38;98634.88;4993844;28;19909;-87
2024/01/19 05:45:00;;;;;;;;;;;;;;;9.35;75.33;98640.31;4976219;28;19921;-87
2024/01/19 05:47:25;;;;;;;;;;;;;;;9.36;75.13;98643.78;4993648;28;19920;-87
2024/01/19 05:49:51;;;;;;;;;;;;;;;9.36;75.65;98644.59;4976146;28;20378;-87
2024/01/19 05:52:16;;;;;;;;;;;;;;;9.36;75.33;98644.59;4993817;28;19910;-87
2024/01/19 05:54:41;;;;;;;;;;;;;;;9.37;76.44;98661.22;4975946;28;20014;-87
2024/01/19 05:57:09;;;;;;;;;;;;;;;9.37;75.03;98659.38;4975796;28;19920;-87
2024/01/19 05:59:35;;;;;;;;;;;;;;;9.36;75.96;98656.94;4991904;28;19949;-86
2024/01/19 06:02:01;;;;;;;;;;;;;;;9.36;74.84;98662.22;4975751;28;19953;-86
2024/01/19 06:04:26;;;;;;;;;;;;;;;9.34;75.32;98667.69;4975539;28;19914;-87
2024/01/19 06:06:52;;;;;;;;;;;;;;;9.33;75.48;98660.78;4975449;28;20322;-87
2024/01/19 06:09:17;;;;;;;;;;;;;;;9.33;74.71;98663.41;4992917;28;20466;-87
2024/01/19 06:11:42;;;;;;;;;;;;;;;9.30;75.20;98658.53;4975408;28;19976;-87
2024/01/19 06:14:07;;;;;;;;;;;;;;;9.30;75.09;98661.16;4975519;28;19914;-87
2024/01/19 06:16:36;;;;;;;;;;;;;;;9.29;75.16;98651.63;4993061;28;19922;-87
2024/01/19 06:19:02;;;;;;;;;;;;;;;9.28;75.29;98657.09;4993156;28;19914;-87
2024/01/19 06:21:27;;;;;;;;;;;;;;;9.27;75.03;98658.91;4991489;28;20414;-87
2024/01/19 06:23:52;;;;;;;;;;;;;;;9.27;75.57;98671.25;4975424;28;19918;-87
2024/01/19 06:26:18;;;;;;;;;;;;;;;9.28;75.21;98670.25;4975643;28;20375;-87
2024/01/19 06:28:43;;;;;;;;;;;;;;;9.24;76.05;98672.47;4992798;28;20012;-87
2024/01/19 06:31:10;;;;;;;;;;;;;;;9.22;75.58;98680.56;4992699;28;19914;-87
2024/01/19 06:33:35;;;;;;;;;;;;;;;9.22;75.08;98672.66;4992684;28;20394;-87
2024/01/19 06:36:00;;;;;;;;;;;;;;;9.25;75.23;98676.72;4975440;28;19953;-87
2024/01/19 06:38:26;;;;;;;;;;;;;;;9.29;74.89;98677.16;4992503;28;20387;-87
2024/01/19 06:40:51;;;;;;;;;;;;;;;9.30;74.96;98678.78;4975224;28;20009;-87
2024/01/19 06:43:17;;;;;;;;;;;;;;;9.32;75.62;98674.97;4991655;28;19918;-87
2024/01/19 06:45:42;;;;;;;;;;;;;;;9.35;75.25;98681.66;4992002;28;19957;-87
2024/01/19 06:48:08;;;;;;;;;;;;;;;9.36;75.79;98689.38;4992403;28;19976;-87
2024/01/19 06:50:33;;;;;;;;;;;;;;;9.38;75.55;98690.00;4992521;28;19910;-87
2024/01/19 06:53:03;;;;;;;;;;;;;;;9.39;75.39;98698.72;4974969;28;19913;-88
2024/01/19 06:55:29;;;;;;;;;;;;;;;9.42;75.31;98700.97;4974868;28;19918;-87
2024/01/19 06:57:54;;;;;;;;;;;;;;;9.43;75.54;98695.50;4974971;28;19920;-88
2024/01/19 07:00:19;;;;;;;;;;;;;;;9.45;75.37;98698.75;4974616;28;20350;-87
2024/01/19 07:02:45;;;;;;;;;;;;;;;9.48;75.84;98706.28;4973252;28;19914;-87
2024/01/19 07:05:10;;;;;;;;;;;;;;;9.53;75.33;98703.91;4958616;28;19925;-87
2024/01/19 07:07:35;;;;;;;;;;;;;;;9.54;75.93;98713.44;4955578;28;20364;-88
2024/01/19 07:10:01;;;;;;;;;;;;;;;9.57;75.40;98704.31;4972860;28;19921;-87
2024/01/19 07:12:26;;;;;;;;;;;;;;;9.60;75.51;98714.47;4963719;28;19925;-87
2024/01/19 07:14:51;;;;;;;;;;;;;;;9.65;74.95;98706.00;4992144;28;19954;-87
2024/01/19 07:17:17;;;;;;;;;;;;;;;9.67;75.30;98696.09;4992232;28;19971;-87
2024/01/19 07:19:44;;;;;;;;;;;;;;;9.68;75.49;98705.66;4991237;28;20402;-87
2024/01/19 07:22:09;;;;;;;;;;;;;;;9.73;75.50;98713.78;4991895;28;19925;-87
2024/01/19 07:24:35;;;;;;;;;;;;;;;9.75;75.92;98712.59;4992076;28;19980;-87
2024/01/19 07:27:01;;;;;;;;;;;;;;;9.78;76.57;98703.47;4974705;28;19997;-87
2024/01/19 07:29:26;;;;;;;;;;;;;;;9.82;76.59;98712.63;4992627;28;20001;-87
2024/01/19 07:31:52;;;;;;;;;;;;;;;9.84;76.34;98711.44;4970934;28;19953;-87
2024/01/19 07:34:17;;;;;;;;;;;;;;;9.88;75.92;98710.03;4975626;28;20451;-86
2024/01/19 07:36:44;;;;;;;;;;;;;;;9.94;76.60;98708.44;4957787;28;19919;-87
2024/01/19 07:39:09;;;;;;;;;;;;;;;9.97;78.14;98704.59;4984483;28;19918;-87
2024/01/19 07:41:35;;;;;;;;;;;;;;;9.99;78.83;98699.94;5005597;28;19992;-87
2024/01/19 07:44:00;;;;;;;;;;;;;;;10.05;77.91;98702.63;4976184;28;19914;-87
2024/01/19 07:46:25;;;;;;;;;;;;;;;10.10;77.95;98699.41;4972089;28;19940;-87
2024/01/19 07:48:50;;;;;;;;;;;;;;;10.16;77.19;98699.44;4991888;28;19914;-87
2024/01/19 07:51:16;;;;;;;;;;;;;;;10.23;77.65;98696.03;4991835;28;19993;-87
2024/01/19 07:53:41;;;;;;;;;;;;;;;10.30;77.19;98696.88;4974500;28;20403;-87
2024/01/19 07:56:06;;;;;;;;;;;;;;;10.35;77.60;98700.56;4977815;28;19917;-87
2024/01/19 07:58:31;;;;;;;;;;;;;;;10.39;77.03;98695.69;4978146;28;19972;-87
2024/01/19 08:00:57;;;;;;;;;;;;;;;10.46;78.63;98704.47;4994206;28;20292;-86
2024/01/19 08:03:22;;;;;;;;;;;;;;;10.52;77.33;98701.03;4994339;28;19918;-87
2024/01/19 08:05:47;;;;;;;;;;;;;;;10.59;76.82;98699.25;4973091;28;19914;-86
2024/01/19 08:08:13;;;;;;;;;;;;;;;10.64;76.07;98704.75;4994786;28;19940;-87
2024/01/19 08:10:38;;;;;;;;;;;;;;;10.70;76.81;98711.06;4977705;28;19914;-86
2024/01/19 08:13:03;;;;;;;;;;;;;;;10.75;76.18;98713.91;4988245;28;19914;-87
2024/01/19 08:15:29;;;;;;;;;;;;;;;10.82;76.58;98714.72;4995105;28;20013;-87
2024/01/19 08:17:54;;;;;;;;;;;;;;;10.87;76.30;98714.13;4995135;28;20122;-86
2024/01/19 08:20:20;;;;;;;;;;;;;;;10.94;76.51;98714.97;4975904;28;19981;-86
2024/01/19 08:22:45;;;;;;;;;;;;;;;10.98;76.53;98708.25;4958720;28;19917;-86
2024/01/19 08:25:10;;;;;;;;;;;;;;;11.02;76.23;98707.66;4976046;28;19920;-86
2024/01/19 08:27:39;;;;;;;;;;;;;;;11.07;75.57;98697.31;4976047;28;19906;-87
2024/01/19 08:30:04;;;;;;;;;;;;;;;11.12;76.19;98696.69;4993869;28;20024;-86
2024/01/19 08:32:31;;;;;;;;;;;;;;;11.17;73.00;98701.41;4977383;28;20406;-85
2024/01/19 08:34:56;;;;;;;;;;;;;;;11.22;74.62;98709.53;4994469;28;19961;-86
2024/01/19 08:37:21;;;;;;;;;;;;;;;11.27;74.58;98715.03;4971859;28;19925;-86
2024/01/19 08:39:46;;;;;;;;;;;;;;;11.33;75.58;98720.31;4958077;28;19921;-86
2024/01/19 08:42:12;;;;;;;;;;;;;;;11.37;74.72;98720.72;4981012;28;19968;-86
2024/01/19 08:44:37;;;;;;;;;;;;;;;11.41;74.73;98724.59;4987215;28;19918;-86
2024/01/19 08:47:02;;;;;;;;;;;;;;;11.46;75.40;98724.78;4975165;28;19926;-86
2024/01/19 08:49:28;;;;;;;;;;;;;;;11.53;74.87;98735.34;4969240;28;19968;-86
2024/01/19 08:51:53;;;;;;;;;;;;;;;11.55;75.12;98731.50;4994501;28;19918;-86
2024/01/19 08:54:18;;;;;;;;;;;;;;;11.57;75.34;98724.19;4994331;28;19921;-86
2024/01/19 08:56:44;;;;;;;;;;;;;;;11.60;73.98;98726.41;4994190;28;19918;-86
2024/01/19 08:59:09;;;;;;;;;;;;;;;11.64;76.09;98729.47;4961235;28;19925;-86
2024/01/19 09:01:34;;;;;;;;;;;;;;;11.70;74.83;98739.22;4957918;28;20384;-86
2024/01/19 09:04:00;;;;;;;;;;;;;;;11.75;73.51;98736.78;4958974;28;20439;-86
2024/01/19 09:06:25;;;;;;;;;;;;;;;11.82;75.23;98739.44;4974224;28;19918;-86
2024/01/19 09:08:50;;;;;;;;;;;;;;;11.91;74.21;98741.69;4957783;28;19996;-86
2024/01/19 09:11:15;;;;;;;;;;;;;;;11.98;73.86;98742.50;4974670;28;19914;-87
2024/01/19 09:13:41;;;;;;;;;;;;;;;12.06;73.26;98749.41;4962022;28;19965;-86
2024/01/19 09:16:09;;;;;;;;;;;;;;;12.15;73.70;98749.97;4995397;28;19958;-84
2024/01/19 09:18:35;;;;;;;;;;;;;;;12.22;72.46;98743.66;4992527;28;20402;-85
2024/01/19 09:21:01;;;;;;;;;;;;;;;12.27;72.45;98735.91;4976842;28;19922;-86
2024/01/19 09:23:26;;;;;;;;;;;;;;;12.34;72.69;98730.59;4976463;28;19917;-85
2024/01/19 09:25:51;;;;;;;;;;;;;;;12.43;73.15;98726.69;4976698;28;19971;-86
2024/01/19 09:28:17;;;;;;;;;;;;;;;12.52;71.50;98732.56;4992295;28;19917;-86
2024/01/19 09:30:42;;;;;;;;;;;;;;;12.60;71.68;98733.13;4976355;28;19913;-85
2024/01/19 09:33:07;;;;;;;;;;;;;;;12.69;71.78;98720.47;4991958;28;20410;-85
2024/01/19 09:35:33;;;;;;;;;;;;;;;12.78;71.05;98724.50;4975778;28;20318;-86
2024/01/19 09:37:58;;;;;;;;;;;;;;;12.88;70.14;98716.09;4993465;28;20399;-86
2024/01/19 09:40:23;;;;;;;;;;;;;;;12.98;70.21;98721.75;4993525;28;19918;-86
2024/01/19 09:42:53;;;;;;;;;;;;;;;13.08;69.59;98715.97;4976069;28;19921;-86
2024/01/19 09:45:19;;;;;;;;;;;;;;;13.19;69.33;98713.47;4994577;28;20438;-85
2024/01/19 09:48:08;;;;;;;;;;;;;;;13.30;68.43;98711.97;4993920;28;19953;-86
2024/01/19 09:50:35;;;;;;;;;;;;;;;13.38;68.54;98710.88;4976406;28;19942;-86
2024/01/19 09:53:00;;;;;;;;;;;;;;;13.44;67.77;98704.75;4976226;28;19980;-86
2024/01/19 09:55:29;;;;;;;;;;;;;;;13.49;67.62;98711.03;4974546;28;19922;-85
2024/01/19 09:57:55;;;;;;;;;;;;;;;13.50;67.89;98711.84;4975996;28;19988;-85
2024/01/19 10:00:21;;;;;;;;;;;;;;;13.52;67.26;98709.78;4993388;28;20374;-86
2024/01/19 10:02:55;;;;;;;;;;;;;;;13.56;67.16;98711.78;4993517;28;19906;-86
2024/01/19 10:05:21;;;;;;;;;;;;;;;13.66;66.96;98714.75;4993382;28;19917;-86
2024/01/19 10:07:48;;;;;;;;;;;;;;;13.74;66.26;98710.19;4975746;28;19914;-85
2024/01/19 10:10:13;;;;;;;;;;;;;;;13.86;66.34;98713.75;4975785;28;19956;-86
2024/01/19 10:12:40;;;;;;;;;;;;;;;13.97;66.24;98713.03;4993849;28;19921;-85
2024/01/19 10:15:08;;;;;;;;;;;;;;;14.09;65.96;98707.78;4993731;28;20310;-85
2024/01/19 10:17:34;;;;;;;;;;;;;;;14.21;64.65;98698.09;4993623;28;20032;-85
2024/01/19 10:19:59;;;;;;;;;;;;;;;14.32;64.84;98697.34;4993426;28;20326;-85
2024/01/19 10:22:28;;;;;;;;;;;;;;;14.38;64.25;98688.47;4975803;28;19918;-85
2024/01/19 10:25:01;;;;;;;;;;;;;;;14.45;64.43;98683.13;4967200;28;19918;-85
2024/01/19 10:27:46;;;;;;;;;;;;;;;14.49;64.12;98679.78;4973910;28;20450;-85
2024/01/19 10:30:13;;;;;;;;;;;;;;;14.55;63.96;98678.91;4963001;28;19918;-85
2024/01/19 10:32:39;;;;;;;;;;;;;;;14.60;63.76;98672.91;4957518;28;20001;-85
2024/01/19 10:35:12;;;;;;;;;;;;;;;14.63;63.47;98667.97;4960456;28;19932;-85
2024/01/19 10:37:37;;;;;;;;;;;;;;;14.62;62.16;98666.34;4990868;28;20008;-85
2024/01/19 10:40:15;;;;;;;;;;;;;;;14.67;63.19;98662.19;4991027;28;20016;-85
2024/01/19 10:42:40;;;;;;;;;;;;;;;14.71;63.11;98650.88;4990926;28;19925;-85
2024/01/19 10:45:16;;;;;;;;;;;;;;;14.75;63.74;98645.94;4990794;28;20346;-84
2024/01/19 10:47:42;;;;;;;;;;;;;;;14.78;63.13;98640.97;4986267;28;19924;-84
2024/01/19 10:50:08;;;;;;;;;;;;;;;14.83;63.76;98646.41;4975381;28;19960;-85
2024/01/19 10:52:34;;;;;;;;;;;;;;;14.88;63.28;98640.44;4976201;28;19976;-85
2024/01/19 10:54:59;;;;;;;;;;;;;;;14.91;62.42;98632.81;4992391;28;19930;-84
2024/01/19 10:57:24;;;;;;;;;;;;;;;14.97;62.16;98638.25;4974100;28;19997;-85
2024/01/19 10:59:50;;;;;;;;;;;;;;;15.01;62.77;98636.78;4975794;28;19922;-85
2024/01/19 11:02:15;;;;;;;;;;;;;;;15.04;63.39;98631.00;4989646;28;20315;-85
2024/01/19 11:04:43;;;;;;;;;;;;;;;15.05;62.47;98628.09;4979263;28;19942;-85
2024/01/19 11:07:08;;;;;;;;;;;;;;;15.03;61.83;98619.56;4956278;28;19925;-85
2024/01/19 11:09:34;;;;;;;;;;;;;;;15.04;62.61;98617.72;4974302;28;19926;-85
2024/01/19 11:12:02;;;;;;;;;;;;;;;15.01;62.22;98615.50;4975706;28;19964;-85
2024/01/19 11:14:27;;;;;;;;;;;;;;;15.01;62.14;98618.16;4975663;28;19924;-85
2024/01/19 11:16:54;;;;;;;;;;;;;;;15.00;62.53;98621.88;4990375;28;19930;-85
2024/01/19 11:19:20;;;;;;;;;;;;;;;14.96;62.41;98615.38;4991808;28;19913;-85
2024/01/19 11:21:45;;;;;;;;;;;;;;;14.92;62.46;98617.69;4988281;28;19925;-85
2024/01/19 11:24:14;;;;;;;;;;;;;;;14.92;62.74;98620.34;4989440;28;19918;-85
2024/01/19 11:26:58;;;;;;;;;;;;;;;14.89;62.70;98616.28;4978788;28;19925;-85
2024/01/19 11:29:30;;;;;;;;;;;;;;;14.89;63.36;98604.84;4974210;28;19918;-85
2024/01/19 11:31:56;;;;;;;;;;;;;;;14.86;62.32;98607.94;4943753;28;19953;-85
2024/01/19 11:34:40;;;;;;;;;;;;;;;14.87;62.37;98604.28;4959308;28;20453;-85
2024/01/19 11:37:05;;;;;;;;;;;;;;;14.88;62.57;98601.38;4975532;28;20009;-85
2024/01/19 11:39:38;;;;;;;;;;;;;;;14.88;62.99;98604.03;4995751;28;19961;-85
2024/01/19 11:42:04;;;;;;;;;;;;;;;14.83;63.35;98593.25;4978595;28;19922;-85
2024/01/19 11:44:45;;;;;;;;;;;;;;;14.84;63.33;98594.88;4990612;28;20033;-85
2024/01/19 11:47:30;;;;;;;;;;;;;;;14.86;63.06;98584.03;4968506;28;19914;-85
2024/01/19 11:49:55;;;;;;;;;;;;;;;14.85;63.45;98585.06;4991592;28;19917;-85
2024/01/19 11:52:20;;;;;;;;;;;;;;;14.84;63.08;98580.78;4972952;28;20295;-85
2024/01/19 11:54:45;;;;;;;;;;;;;;;14.84;63.21;98583.44;4992989;28;19949;-85
2024/01/19 11:57:21;;;;;;;;;;;;;;;14.82;62.81;98588.97;4977033;28;19918;-85
2024/01/19 11:59:47;;;;;;;;;;;;;;;14.83;63.10;98587.13;4988645;28;19929;-85
2024/01/19 12:02:31;;;;;;;;;;;;;;;14.83;63.13;98584.47;4980117;28;20296;-85
2024/01/19 12:05:02;;;;;;;;;;;;;;;14.86;62.88;98582.19;4997771;28;19918;-85
2024/01/19 12:07:28;;;;;;;;;;;;;;;14.87;62.72;98573.19;4994300;28;19918;-85
2024/01/19 12:10:15;;;;;;;;;;;;;;;14.88;62.59;98580.13;4990258;28;19972;-84
2024/01/19 12:12:40;;;;;;;;;;;;;;;14.87;62.84;98581.16;4977754;28;19916;-85
2024/01/19 12:15:07;;;;;;;;;;;;;;;14.86;63.15;98573.38;4987000;28;20016;-86
2024/01/19 12:17:34;;;;;;;;;;;;;;;14.87;63.30;98573.19;4994050;28;19918;-85
2024/01/19 12:19:59;;;;;;;;;;;;;;;14.90;63.00;98571.94;4978908;28;19922;-85
2024/01/19 12:22:25;;;;;;;;;;;;;;;14.90;63.06;98577.25;4995035;28;19913;-86
2024/01/19 12:24:50;;;;;;;;;;;;;;;14.91;62.72;98581.53;4977459;28;19918;-85
2024/01/19 12:27:19;;;;;;;;;;;;;;;14.91;62.88;98581.53;4994940;28;20355;-85
2024/01/19 12:29:45;;;;;;;;;;;;;;;14.91;62.25;98571.69;4994975;28;19918;-86
2024/01/19 12:32:11;;;;;;;;;;;;;;;14.95;62.61;98569.38;4994790;28;19913;-86
2024/01/19 12:34:37;;;;;;;;;;;;;;;14.94;62.99;98565.09;4977303;28;19937;-85
2024/01/19 12:37:03;;;;;;;;;;;;;;;14.94;63.00;98562.44;4994703;28;20338;-85
2024/01/19 12:39:28;;;;;;;;;;;;;;;14.94;62.89;98573.91;4977108;28;19913;-85
2024/01/19 12:42:05;;;;;;;;;;;;;;;14.94;62.85;98581.06;4993040;28;19917;-85
2024/01/19 12:44:30;;;;;;;;;;;;;;;14.86;63.24;98590.19;4995094;28;20061;-85
2024/01/19 12:46:58;;;;;;;;;;;;;;;14.86;63.31;98584.03;4995221;28;19960;-85